Time;durP1;ratioP1;P1;durP2;ratioP2;P2;SDS_P1;SDS_P2;PMS_P1;PMS_P2;Temp;Humidity;BMP_temperature;BMP_pressure;BME280_temperature;BME280_humidity;BME280_pressure;Samples;Min_cycle;Max_cycle;Signal;HPM_P1;HPM_P2
2023/01/29 00:01:05;;;;;;;4.57;3.40;;;0.60;82.70;;;;;;5040344;28;20113;-78
2023/01/29 00:03:30;;;;;;;5.55;3.42;;;0.60;82.70;;;;;;5064862;28;20067;-78
2023/01/29 00:05:56;;;;;;;7.18;3.55;;;0.60;82.70;;;;;;5081586;28;20122;-78
2023/01/29 00:08:21;;;;;;;7.75;3.88;;;0.60;82.60;;;;;;5067835;28;20493;-77
2023/01/29 00:10:47;;;;;;;5.82;4.00;;;0.60;82.50;;;;;;5066729;28;20028;-78
2023/01/29 00:13:12;;;;;;;5.78;3.92;;;0.60;82.50;;;;;;5036164;28;20066;-77
2023/01/29 00:15:38;;;;;;;4.72;3.60;;;0.60;82.40;;;;;;5066229;28;20118;-77
2023/01/29 00:18:04;;;;;;;5.53;3.35;;;0.50;82.40;;;;;;5067672;28;20610;-78
2023/01/29 00:20:30;;;;;;;6.03;4.03;;;0.50;82.40;;;;;;5069629;28;20793;-78
2023/01/29 00:22:55;;;;;;;5.43;4.03;;;0.50;82.40;;;;;;5046240;28;20052;-78
2023/01/29 00:25:21;;;;;;;7.60;4.63;;;0.50;82.50;;;;;;5067288;28;20036;-77
2023/01/29 00:27:46;;;;;;;7.20;3.72;;;0.50;82.40;;;;;;5064404;28;20226;-78
2023/01/29 00:30:12;;;;;;;5.97;4.18;;;0.50;82.40;;;;;;5043222;28;20040;-78
2023/01/29 00:32:41;;;;;;;6.45;4.35;;;0.50;82.50;;;;;;5051748;28;20032;-79
2023/01/29 00:35:07;;;;;;;6.90;4.00;;;0.50;82.50;;;;;;5028038;28;20483;-77
2023/01/29 00:37:32;;;;;;;5.40;3.80;;;0.50;82.50;;;;;;5057163;28;20592;-78
2023/01/29 00:39:58;;;;;;;5.70;3.60;;;0.50;82.50;;;;;;5065877;28;20724;-78
2023/01/29 00:45:09;;;;;;;8.68;4.07;;;0.50;82.70;;;;;;5069314;28;20046;-77
2023/01/29 00:47:35;;;;;;;6.13;3.63;;;0.50;82.60;;;;;;5083050;28;20036;-76
2023/01/29 00:50:02;;;;;;;6.63;3.85;;;0.50;82.50;;;;;;5052277;28;20032;-77
2023/01/29 00:52:28;;;;;;;6.28;4.35;;;0.50;82.50;;;;;;5081749;28;20130;-78
2023/01/29 00:54:55;;;;;;;6.43;3.95;;;0.50;82.50;;;;;;5065331;28;20605;-78
2023/01/29 00:57:21;;;;;;;5.55;3.83;;;0.50;82.60;;;;;;5067362;28;20425;-78
2023/01/29 00:59:46;;;;;;;5.97;3.88;;;0.50;82.50;;;;;;5049532;28;20498;-77
2023/01/29 01:04:56;;;;;;;6.25;3.97;;;0.50;82.50;;;;;;5069536;28;20070;-78
2023/01/29 01:07:21;;;;;;;5.90;3.90;;;0.50;82.40;;;;;;5047233;28;20510;-78
2023/01/29 01:12:31;;;;;;;7.75;4.22;;;0.50;82.40;;;;;;5062433;28;20028;-78
2023/01/29 01:14:57;;;;;;;7.28;4.40;;;0.40;82.50;;;;;;5066262;28;20020;-78
2023/01/29 01:17:22;;;;;;;10.25;5.18;;;0.40;82.50;;;;;;5062598;28;20028;-78
2023/01/29 01:19:48;;;;;;;6.85;4.28;;;0.40;82.50;;;;;;5065019;28;20039;-78
2023/01/29 01:22:21;;;;;;;6.28;3.92;;;0.40;82.40;;;;;;5079879;28;20112;-78
2023/01/29 01:24:47;;;;;;;6.43;3.97;;;0.40;82.40;;;;;;5047878;28;20184;-78
2023/01/29 01:27:12;;;;;;;6.85;4.47;;;0.40;82.50;;;;;;5064340;28;20143;-77
2023/01/29 01:29:38;;;;;;;6.85;4.18;;;0.40;82.50;;;;;;5072297;28;20040;-78
2023/01/29 01:32:05;;;;;;;9.48;4.63;;;0.40;82.50;;;;;;5084198;27;20035;-78
2023/01/29 01:34:31;;;;;;;9.73;5.10;;;0.40;82.50;;;;;;5065713;28;20418;-77
2023/01/29 01:36:56;;;;;;;10.52;5.00;;;0.40;82.50;;;;;;5066870;28;20032;-78
2023/01/29 01:39:22;;;;;;;9.57;4.97;;;0.40;82.50;;;;;;5103709;27;20040;-78
2023/01/29 01:41:48;;;;;;;7.65;4.78;;;0.40;82.50;;;;;;5061626;28;20036;-78
2023/01/29 01:44:50;;;;;;;6.85;4.15;;;0.40;82.60;;;;;;5085810;27;20043;-78
2023/01/29 01:47:15;;;;;;;7.47;4.50;;;0.40;82.40;;;;;;5100739;27;20063;-78
2023/01/29 01:49:41;;;;;;;6.65;4.30;;;0.40;82.50;;;;;;5045943;28;20379;-77
2023/01/29 01:52:07;;;;;;;8.18;5.03;;;0.40;82.40;;;;;;5080966;28;20025;-78
2023/01/29 01:54:32;;;;;;;6.85;4.53;;;0.40;82.40;;;;;;5082408;28;20087;-78
2023/01/29 01:57:08;;;;;;;8.88;5.22;;;0.30;82.30;;;;;;5082801;28;20612;-77
2023/01/29 01:59:34;;;;;;;10.10;4.95;;;0.30;82.30;;;;;;5061482;28;20043;-78
2023/01/29 02:10:14;;;;;;;7.45;4.40;;;0.30;82.20;;;;;;5070632;28;20062;-77
2023/01/29 02:12:40;;;;;;;6.75;4.25;;;0.30;82.30;;;;;;5084304;28;20036;-77
2023/01/29 02:15:06;;;;;;;9.30;4.32;;;0.30;82.30;;;;;;5063780;28;20028;-77
2023/01/29 02:17:31;;;;;;;6.00;4.05;;;0.30;82.30;;;;;;5074405;28;20032;-77
2023/01/29 02:20:09;;;;;;;8.13;4.15;;;0.30;82.30;;;;;;5065091;28;20042;-77
2023/01/29 02:22:54;;;;;;;6.05;4.38;;;0.30;82.40;;;;;;5099597;27;20582;-76
2023/01/29 02:25:27;;;;;;;6.55;4.40;;;0.30;82.40;;;;;;5075542;28;20385;-77
2023/01/29 02:28:11;;;;;;;6.85;4.55;;;0.30;82.50;;;;;;5063504;28;20040;-77
2023/01/29 02:30:37;;;;;;;6.60;4.25;;;0.30;82.50;;;;;;5100286;28;20046;-77
2023/01/29 02:33:33;;;;;;;6.28;4.22;;;0.30;82.60;;;;;;5066285;28;20043;-77
2023/01/29 02:36:04;;;;;;;6.50;4.13;;;0.30;82.80;;;;;;5075752;28;20043;-78
2023/01/29 02:38:48;;;;;;;9.45;4.80;;;0.30;82.80;;;;;;5070603;28;20105;-77
2023/01/29 02:41:23;;;;;;;7.43;4.57;;;0.30;82.90;;;;;;5099786;28;20628;-77
2023/01/29 02:44:14;;;;;;;8.18;4.70;;;0.40;83.00;;;;;;5075807;28;20649;-78
2023/01/29 02:46:45;;;;;;;10.73;5.00;;;0.40;83.00;;;;;;5072250;28;20551;-77
2023/01/29 02:49:20;;;;;;;8.60;5.47;;;0.40;83.00;;;;;;5079419;28;20135;-76
2023/01/29 02:52:06;;;;;;;8.27;4.43;;;0.40;82.90;;;;;;5079475;28;20039;-77
2023/01/29 02:54:34;;;;;;;8.05;4.75;;;0.30;82.80;;;;;;5077202;28;20490;-77
2023/01/29 02:57:03;;;;;;;7.05;4.38;;;0.30;82.90;;;;;;5095275;28;20047;-76
2023/01/29 02:59:36;;;;;;;7.68;4.63;;;0.30;82.80;;;;;;5071099;28;20522;-76
2023/01/29 03:02:31;;;;;;;8.43;4.68;;;0.30;83.60;;;;;;5068230;28;20123;-78
2023/01/29 03:05:00;;;;;;;6.55;4.45;;;0.30;82.70;;;;;;5077193;28;20036;-78
2023/01/29 03:07:41;;;;;;;11.18;4.65;;;0.30;82.80;;;;;;5057843;28;20126;-77
2023/01/29 03:10:14;;;;;;;7.75;4.40;;;0.30;82.80;;;;;;5080762;28;20454;-77
2023/01/29 03:12:40;;;;;;;10.63;5.40;;;0.30;82.90;;;;;;5060803;28;20028;-77
2023/01/29 03:15:15;;;;;;;8.20;4.68;;;0.30;83.00;;;;;;5064338;28;20035;-77
2023/01/29 03:17:49;;;;;;;8.13;4.72;;;0.30;83.00;;;;;;5041539;28;20205;-78
2023/01/29 03:20:16;;;;;;;7.63;4.53;;;0.30;83.10;;;;;;5076741;28;20122;-78
2023/01/29 03:22:44;;;;;;;6.00;4.20;;;0.30;83.10;;;;;;5083726;28;20106;-77
2023/01/29 03:33:59;;;;;;;8.35;4.82;;;0.30;83.90;;;;;;5078788;28;20046;-76
2023/01/29 03:37:00;;;;;;;7.28;4.05;;;0.30;83.20;;;;;;5045669;28;20142;-77
2023/01/29 03:39:29;;;;;;;9.60;4.75;;;0.30;83.30;;;;;;5064606;28;20024;-78
2023/01/29 03:42:01;;;;;;;7.60;4.75;;;0.30;83.30;;;;;;5064577;28;21858;-77
2023/01/29 03:44:59;;;;;;;6.85;4.15;;;0.30;83.20;;;;;;5066236;28;20034;-77
2023/01/29 03:48:03;;;;;;;5.70;3.83;;;0.30;83.10;;;;;;5058514;28;20059;-76
2023/01/29 03:50:51;;;;;;;7.25;4.75;;;0.30;83.20;;;;;;5081674;28;20035;-77
2023/01/29 03:53:42;;;;;;;7.03;4.53;;;0.30;83.20;;;;;;5075285;28;20115;-76
2023/01/29 03:56:20;;;;;;;6.55;4.53;;;0.30;83.20;;;;;;5059741;27;20048;-77
2023/01/29 03:58:58;;;;;;;7.15;4.57;;;0.30;83.30;;;;;;5084786;27;20055;-77
2023/01/29 04:01:30;;;;;;;6.70;4.10;;;0.30;83.20;;;;;;5061132;28;20036;-77
2023/01/29 04:04:01;;;;;;;7.32;4.32;;;0.20;83.20;;;;;;5063047;28;20545;-77
2023/01/29 04:06:29;;;;;;;7.50;5.10;;;0.20;83.20;;;;;;5064373;28;20067;-77
2023/01/29 04:09:00;;;;;;;8.77;4.40;;;0.30;83.30;;;;;;5064091;28;20039;-78
2023/01/29 04:11:26;;;;;;;8.02;4.57;;;0.30;83.40;;;;;;5072439;28;20123;-77
2023/01/29 04:13:52;;;;;;;8.15;4.65;;;0.20;83.30;;;;;;5083530;28;20666;-77
2023/01/29 04:16:21;;;;;;;5.78;4.20;;;0.20;83.40;;;;;;5069535;28;20064;-76
2023/01/29 04:18:47;;;;;;;7.80;4.55;;;0.20;83.40;;;;;;5065886;28;20537;-77
2023/01/29 04:21:13;;;;;;;9.68;5.22;;;0.20;83.40;;;;;;5085893;28;20053;-77
2023/01/29 04:23:38;;;;;;;7.68;4.53;;;0.20;83.40;;;;;;5063635;28;20035;-76
2023/01/29 04:26:32;;;;;;;8.27;4.53;;;0.20;83.50;;;;;;5082522;28;20032;-76
2023/01/29 04:29:10;;;;;;;6.43;4.28;;;0.20;83.60;;;;;;5061702;28;20598;-77
2023/01/29 04:31:43;;;;;;;7.55;4.95;;;0.20;83.60;;;;;;5076754;28;20035;-76
2023/01/29 04:34:36;;;;;;;9.35;4.97;;;0.20;83.60;;;;;;5079724;28;20486;-77
2023/01/29 04:37:15;;;;;;;11.55;5.20;;;0.20;83.50;;;;;;5080045;28;20036;-77
2023/01/29 04:40:00;;;;;;;7.97;4.57;;;0.20;83.50;;;;;;5067771;27;20047;-77
2023/01/29 04:42:32;;;;;;;8.55;4.82;;;0.20;83.20;;;;;;5078656;28;20043;-76
2023/01/29 04:45:03;;;;;;;9.18;4.55;;;0.20;83.20;;;;;;5065301;28;20032;-77
2023/01/29 04:47:47;;;;;;;;;;;0.20;83.30;;;;;;5057886;28;20093;-78
2023/01/29 04:50:15;;;;;;;7.80;4.70;;;0.10;83.20;;;;;;5089360;28;19916;-76
2023/01/29 04:52:46;;;;;;;10.98;5.68;;;0.10;83.20;;;;;;5064489;28;20135;-77
2023/01/29 04:55:39;;;;;;;9.27;4.55;;;0.10;83.10;;;;;;5066333;28;20055;-77
2023/01/29 04:58:09;;;;;;;9.90;4.82;;;0.10;83.10;;;;;;5079175;28;20028;-77
2023/01/29 05:00:43;;;;;;;9.07;5.18;;;0.00;83.00;;;;;;5061867;28;20036;-78
2023/01/29 05:03:13;;;;;;;11.43;5.15;;;0.00;83.00;;;;;;5052928;28;20051;-77
2023/01/29 05:05:44;;;;;;;7.35;4.20;;;0.00;83.10;;;;;;5062607;27;20024;-77
2023/01/29 05:08:10;;;;;;;9.38;4.95;;;0.00;83.20;;;;;;5078943;28;20525;-77
2023/01/29 05:10:37;;;;;;;7.55;4.32;;;0.00;83.30;;;;;;5061024;28;20036;-76
2023/01/29 05:13:03;;;;;;;8.30;4.75;;;0.00;83.30;;;;;;5082136;28;20039;-77
2023/01/29 05:15:37;;;;;;;8.65;4.70;;;0.00;83.30;;;;;;5050567;28;20032;-78
2023/01/29 05:18:07;;;;;;;8.52;4.88;;;0.00;83.40;;;;;;5068262;28;20054;-78
2023/01/29 05:20:33;;;;;;;8.02;4.80;;;0.00;83.30;;;;;;5085103;28;20043;-77
2023/01/29 05:22:59;;;;;;;7.72;4.93;;;0.00;83.30;;;;;;5067466;28;20148;-77
2023/01/29 05:25:26;;;;;;;7.93;4.40;;;0.00;83.40;;;;;;5045471;28;20047;-78
2023/01/29 05:28:12;;;;;;;6.32;4.20;;;0.00;83.50;;;;;;5081065;27;20039;-78
2023/01/29 05:30:38;;;;;;;6.82;3.95;;;0.00;83.50;;;;;;5076072;28;20048;-77
2023/01/29 05:33:08;;;;;;;8.35;4.63;;;0.00;84.30;;;;;;5077956;28;20043;-78
2023/01/29 05:35:33;;;;;;;7.50;4.60;;;0.00;83.40;;;;;;5084549;28;20044;-77
2023/01/29 05:37:59;;;;;;;6.65;4.30;;;-0.10;83.40;;;;;;5066500;28;20130;-77
2023/01/29 05:40:24;;;;;;;8.65;4.63;;;-0.10;83.30;;;;;;5077794;27;20039;-77
2023/01/29 05:42:50;;;;;;;7.45;4.65;;;-0.10;83.40;;;;;;5076502;28;20829;-78
2023/01/29 05:45:17;;;;;;;7.80;4.55;;;-0.10;83.60;;;;;;5047405;28;20027;-77
2023/01/29 05:47:43;;;;;;;8.55;4.50;;;-0.10;83.70;;;;;;5062803;28;20497;-77
2023/01/29 05:50:09;;;;;;;6.45;4.28;;;-0.10;83.80;;;;;;5081224;28;20127;-77
2023/01/29 05:52:34;;;;;;;7.82;4.10;;;-0.10;83.80;;;;;;5081281;28;20096;-77
2023/01/29 05:55:00;;;;;;;8.70;4.57;;;-0.10;83.90;;;;;;5064165;28;20414;-76
2023/01/29 05:57:25;;;;;;;7.18;4.50;;;-0.10;83.90;;;;;;5077112;28;20490;-77
2023/01/29 05:59:51;;;;;;;6.93;4.13;;;-0.10;83.90;;;;;;5073189;28;20036;-77
2023/01/29 06:02:16;;;;;;;8.75;4.55;;;-0.10;84.00;;;;;;5080850;28;20063;-77
2023/01/29 06:04:42;;;;;;;6.00;3.58;;;0.00;84.00;;;;;;5074264;28;20093;-77
2023/01/29 06:07:07;;;;;;;8.63;4.68;;;0.00;84.10;;;;;;5063248;28;20496;-77
2023/01/29 06:09:33;;;;;;;8.52;5.13;;;-0.10;84.10;;;;;;5075765;28;20048;-77
2023/01/29 06:11:58;;;;;;;6.15;4.00;;;0.00;84.30;;;;;;5073113;28;20483;-77
2023/01/29 06:14:24;;;;;;;7.60;4.78;;;0.00;84.30;;;;;;5085017;28;20079;-78
2023/01/29 06:16:49;;;;;;;7.93;4.75;;;-0.10;84.30;;;;;;5080980;28;20034;-77
2023/01/29 06:19:17;;;;;;;7.93;4.22;;;-0.10;84.20;;;;;;5095747;28;20054;-78
2023/01/29 06:21:42;;;;;;;7.28;4.32;;;0.00;84.30;;;;;;5076753;28;20032;-78
2023/01/29 06:24:08;;;;;;;7.47;4.47;;;-0.10;84.20;;;;;;5087211;28;20044;-76
2023/01/29 06:26:33;;;;;;;7.05;4.40;;;-0.10;84.20;;;;;;5078369;28;20034;-76
2023/01/29 06:28:59;;;;;;;11.48;4.80;;;-0.10;84.10;;;;;;5063941;28;20039;-77
2023/01/29 06:31:24;;;;;;;7.18;4.40;;;-0.10;84.10;;;;;;5063036;28;20437;-77
2023/01/29 06:33:50;;;;;;;7.90;4.68;;;-0.10;84.10;;;;;;5081746;28;20035;-77
2023/01/29 06:36:15;;;;;;;10.90;5.00;;;-0.10;84.10;;;;;;5082015;28;20430;-77
2023/01/29 06:38:41;;;;;;;7.10;4.60;;;-0.10;84.10;;;;;;5101438;28;20726;-77
2023/01/29 06:41:10;;;;;;;7.53;4.88;;;-0.10;84.10;;;;;;5065225;28;20058;-77
2023/01/29 06:43:37;;;;;;;10.02;5.18;;;-0.10;84.10;;;;;;5064047;28;20055;-77
2023/01/29 06:46:02;;;;;;;11.15;5.30;;;-0.20;83.90;;;;;;5063938;28;20122;-72
2023/01/29 06:48:28;;;;;;;7.05;4.15;;;-0.20;84.00;;;;;;5061671;28;20657;-77
2023/01/29 06:50:54;;;;;;;10.38;5.28;;;-0.20;84.00;;;;;;5064363;28;20035;-77
2023/01/29 06:53:20;;;;;;;8.73;4.82;;;-0.20;84.00;;;;;;5067107;28;20036;-76
2023/01/29 06:55:51;;;;;;;11.57;5.10;;;-0.20;84.20;;;;;;5063028;28;20042;-77
2023/01/29 06:58:17;;;;;;;11.70;5.18;;;-0.20;84.20;;;;;;5079961;28;20100;-77
2023/01/29 07:00:43;;;;;;;7.45;4.88;;;-0.20;84.20;;;;;;5078622;28;20044;-76
2023/01/29 07:03:08;;;;;;;8.13;4.78;;;-0.10;84.30;;;;;;5079441;28;20039;-76
2023/01/29 07:05:34;;;;;;;9.25;5.65;;;-0.10;84.30;;;;;;5080662;28;20040;-76
2023/01/29 07:08:00;;;;;;;69.63;29.80;;;-0.10;84.40;;;;;;5080511;28;20036;-76
2023/01/29 07:10:25;;;;;;;40.40;18.60;;;-0.10;84.30;;;;;;5062547;28;20062;-77
2023/01/29 07:12:51;;;;;;;13.38;7.88;;;-0.10;84.30;;;;;;5082689;28;20035;-76
2023/01/29 07:15:20;;;;;;;18.08;8.38;;;-0.10;84.30;;;;;;5083359;28;20541;-76
2023/01/29 07:17:57;;;;;;;11.95;6.97;;;-0.20;84.30;;;;;;5066219;28;20160;-77
2023/01/29 07:20:26;;;;;;;14.07;7.05;;;-0.10;84.40;;;;;;5050296;28;20028;-77
2023/01/29 07:22:52;;;;;;;10.23;6.40;;;-0.10;84.40;;;;;;5082429;28;20035;-77
2023/01/29 07:25:18;;;;;;;8.18;5.60;;;-0.10;84.40;;;;;;5062908;28;22417;-77
2023/01/29 07:27:43;;;;;;;9.60;6.22;;;-0.10;84.40;;;;;;5078789;28;20039;-77
2023/01/29 07:30:09;;;;;;;9.70;5.78;;;-0.10;84.30;;;;;;5062496;28;20131;-76
2023/01/29 07:32:38;;;;;;;8.75;5.18;;;-0.10;84.30;;;;;;5050315;28;20044;-77
2023/01/29 07:35:04;;;;;;;8.27;5.32;;;-0.10;84.30;;;;;;5042312;28;20036;-77
2023/01/29 07:37:29;;;;;;;10.02;5.50;;;-0.20;84.20;;;;;;5061864;28;20040;-77
2023/01/29 07:39:55;;;;;;;8.80;4.38;;;-0.10;84.30;;;;;;5064516;28;20059;-76
2023/01/29 07:42:21;;;;;;;8.35;4.85;;;-0.20;84.30;;;;;;5070538;28;20096;-77
2023/01/29 07:44:46;;;;;;;6.68;4.60;;;-0.20;84.20;;;;;;5066118;28;20169;-77
2023/01/29 07:47:12;;;;;;;8.68;4.07;;;-0.20;84.20;;;;;;5065636;28;20545;-78
2023/01/29 07:49:37;;;;;;;5.55;3.72;;;-0.20;84.20;;;;;;5047091;28;20032;-76
2023/01/29 07:52:03;;;;;;;7.32;4.22;;;-0.20;84.20;;;;;;5079418;28;20028;-76
2023/01/29 07:54:29;;;;;;;5.65;4.07;;;-0.20;84.20;;;;;;5066199;28;20036;-76
2023/01/29 07:56:54;;;;;;;6.85;4.20;;;-0.10;84.30;;;;;;5059309;28;20036;-76
2023/01/29 07:59:20;;;;;;;8.23;4.05;;;-0.10;84.30;;;;;;5078419;28;20092;-76
2023/01/29 08:01:45;;;;;;;7.32;4.82;;;-0.10;84.20;;;;;;5081106;28;20036;-76
2023/01/29 08:04:11;;;;;;;6.28;4.28;;;-0.10;84.20;;;;;;5046103;28;20067;-76
2023/01/29 08:06:36;;;;;;;7.22;4.97;;;-0.10;84.20;;;;;;5042186;28;20063;-77
2023/01/29 08:09:02;;;;;;;11.73;6.60;;;-0.10;84.20;;;;;;5060507;28;20111;-76
2023/01/29 08:11:28;;;;;;;7.20;4.70;;;-0.10;84.30;;;;;;5059635;28;20122;-76
2023/01/29 08:13:54;;;;;;;6.85;4.63;;;-0.10;84.30;;;;;;5060469;28;20032;-77
2023/01/29 08:16:19;;;;;;;7.28;4.72;;;-0.10;84.30;;;;;;5059952;28;20074;-78
2023/01/29 08:18:47;;;;;;;5.88;4.63;;;0.00;85.20;;;;;;5061732;28;20151;-77
2023/01/29 08:21:12;;;;;;;5.45;4.05;;;0.00;84.40;;;;;;5048027;28;20490;-75
2023/01/29 08:23:38;;;;;;;7.57;5.20;;;0.00;84.50;;;;;;5059290;28;20047;-76
2023/01/29 08:26:04;;;;;;;6.70;4.28;;;0.10;84.60;;;;;;5058808;28;20039;-78
2023/01/29 08:28:29;;;;;;;7.05;4.45;;;0.10;84.50;;;;;;5062469;28;20068;-76
2023/01/29 08:30:55;;;;;;;6.28;4.40;;;0.10;84.50;;;;;;5060384;28;20549;-77
2023/01/29 08:33:20;;;;;;;6.28;4.55;;;0.10;84.40;;;;;;5042435;28;20040;-76
2023/01/29 08:35:52;;;;;;;5.32;4.35;;;0.10;84.40;;;;;;5060171;28;20147;-77
2023/01/29 08:38:17;;;;;;;;;;;0.10;84.30;;;;;;5044194;28;20043;-76
2023/01/29 08:40:43;;;;;;;6.40;4.00;;;0.10;84.20;;;;;;5079625;28;19916;-76
2023/01/29 08:43:09;;;;;;;4.30;3.80;;;0.10;84.10;;;;;;5047325;28;20157;-77
2023/01/29 08:45:36;;;;;;;6.07;4.35;;;0.20;84.10;;;;;;5050332;28;20138;-77
2023/01/29 08:48:02;;;;;;;7.18;5.05;;;0.20;84.10;;;;;;5048003;28;20035;-77
2023/01/29 08:50:31;;;;;;;7.13;4.68;;;0.20;84.10;;;;;;5066642;28;20032;-76
2023/01/29 08:52:58;;;;;;;6.28;4.72;;;0.20;84.00;;;;;;5080086;28;20037;-76
2023/01/29 08:55:23;;;;;;;5.43;4.47;;;0.30;84.00;;;;;;5057640;28;20036;-77
2023/01/29 08:57:49;;;;;;;7.35;4.70;;;0.30;84.00;;;;;;5062544;28;20088;-76
2023/01/29 09:00:15;;;;;;;7.60;4.82;;;0.30;84.00;;;;;;5080047;28;20044;-78
2023/01/29 09:02:40;;;;;;;9.13;4.75;;;0.30;83.90;;;;;;5052641;28;20036;-78
2023/01/29 09:05:06;;;;;;;11.20;5.95;;;0.40;84.00;;;;;;5053380;28;20047;-78
2023/01/29 09:07:32;;;;;;;10.55;6.00;;;0.40;84.00;;;;;;5067848;28;20040;-79
2023/01/29 09:09:57;;;;;;;8.63;5.13;;;0.50;84.10;;;;;;5084342;28;20036;-78
2023/01/29 09:12:23;;;;;;;8.40;4.85;;;0.50;84.00;;;;;;5062464;28;20040;-77
2023/01/29 09:14:48;;;;;;;10.50;5.07;;;0.50;83.80;;;;;;5072085;28;20073;-78
2023/01/29 09:17:14;;;;;;;7.40;5.20;;;0.60;83.90;;;;;;5062771;28;20073;-78
2023/01/29 09:19:39;;;;;;;6.45;4.65;;;0.70;83.80;;;;;;5086856;28;20062;-78
2023/01/29 09:22:05;;;;;;;7.40;4.57;;;0.70;83.80;;;;;;5049968;28;20072;-75
2023/01/29 09:24:33;;;;;;;6.78;4.97;;;0.70;83.70;;;;;;5064112;28;20036;-76
2023/01/29 09:26:59;;;;;;;6.90;4.68;;;0.80;83.70;;;;;;5077880;28;20028;-77
2023/01/29 09:29:25;;;;;;;9.82;5.00;;;0.80;83.60;;;;;;5068581;28;20052;-76
2023/01/29 09:31:50;;;;;;;7.85;4.43;;;0.80;83.50;;;;;;5061436;28;20055;-78
2023/01/29 09:34:16;;;;;;;7.90;5.10;;;0.90;83.60;;;;;;5077781;28;20085;-76
2023/01/29 09:36:41;;;;;;;5.82;4.32;;;0.90;83.30;;;;;;5065286;28;20123;-77
2023/01/29 09:39:07;;;;;;;8.93;4.88;;;0.90;83.30;;;;;;5060922;28;20024;-76
2023/01/29 09:41:40;;;;;;;7.30;4.45;;;0.90;83.20;;;;;;5048673;28;20122;-77
2023/01/29 09:44:33;;;;;;;7.95;5.10;;;1.00;83.30;;;;;;5053567;28;20040;-77
2023/01/29 09:46:59;;;;;;;7.60;4.85;;;1.00;83.20;;;;;;5063327;28;20036;-77
2023/01/29 09:49:36;;;;;;;8.82;4.55;;;1.00;83.20;;;;;;5059043;28;20051;-78
2023/01/29 09:52:05;;;;;;;7.50;4.28;;;1.00;82.90;;;;;;5061965;28;20552;-77
2023/01/29 09:54:58;;;;;;;6.32;4.75;;;1.00;83.00;;;;;;5059288;28;20044;-76
2023/01/29 09:57:27;;;;;;;6.47;4.93;;;1.10;83.00;;;;;;5077187;28;20047;-78
2023/01/29 09:59:53;;;;;;;5.60;4.28;;;1.00;83.00;;;;;;5066918;28;20612;-77
2023/01/29 10:02:43;;;;;;;10.10;6.30;;;1.00;83.00;;;;;;5075965;28;20040;-77
2023/01/29 10:05:21;;;;;;;7.80;4.93;;;1.10;83.00;;;;;;5065983;28;20615;-76
2023/01/29 10:08:17;;;;;;;4.85;4.05;;;1.10;83.00;;;;;;5063742;28;20078;-77
2023/01/29 10:11:06;;;;;;;9.98;5.47;;;1.00;82.80;;;;;;5047901;28;20826;-77
2023/01/29 10:13:47;;;;;;;17.73;13.10;;;1.10;83.00;;;;;;5063210;28;20483;-77
2023/01/29 10:16:21;;;;;;;8.73;5.72;;;1.00;82.80;;;;;;5063041;28;20036;-78
2023/01/29 10:19:02;;;;;;;7.88;6.40;;;1.00;82.90;;;;;;5094530;28;20066;-77
2023/01/29 10:21:42;;;;;;;21.60;12.57;;;1.10;82.90;;;;;;5073646;28;20036;-77
2023/01/29 10:24:41;;;;;;;14.07;7.22;;;1.10;82.90;;;;;;5063171;28;20163;-77
2023/01/29 10:27:12;;;;;;;51.55;19.23;;;1.10;82.60;;;;;;5080758;28;20124;-77
2023/01/29 10:29:38;;;;;;;136.25;39.40;;;1.10;82.70;;;;;;5047575;28;20052;-77
2023/01/29 10:32:04;;;;;;;175.82;48.90;;;1.20;82.80;;;;;;5049141;28;20039;-76
2023/01/29 10:34:37;;;;;;;40.05;13.25;;;1.20;82.70;;;;;;5048300;28;20040;-77
2023/01/29 10:37:13;;;;;;;158.02;43.40;;;1.20;82.50;;;;;;5063048;28;20077;-77
2023/01/29 10:39:38;;;;;;;156.90;40.65;;;1.20;82.40;;;;;;5040589;28;20506;-77
2023/01/29 10:42:25;;;;;;;108.68;31.27;;;1.30;82.60;;;;;;5070317;28;20052;-76
2023/01/29 10:44:54;;;;;;;69.82;23.42;;;1.30;82.40;;;;;;5042123;28;20040;-77
2023/01/29 10:47:33;;;;;;;42.10;18.55;;;1.40;82.60;;;;;;5059211;28;20040;-76
2023/01/29 10:50:28;;;;;;;18.65;8.82;;;1.40;82.50;;;;;;5069354;28;20110;-77
2023/01/29 10:53:12;;;;;;;11.23;6.30;;;1.50;82.50;;;;;;5063649;28;20414;-76
2023/01/29 10:55:49;;;;;;;23.95;9.70;;;1.50;82.30;;;;;;5086246;28;20032;-76
2023/01/29 10:58:44;;;;;;;9.45;6.03;;;1.50;82.40;;;;;;5071524;28;20127;-76
2023/01/29 11:01:09;;;;;;;20.40;8.30;;;1.60;82.40;;;;;;5075506;28;20112;-77
2023/01/29 11:03:35;;;;;;;14.55;7.10;;;1.70;82.40;;;;;;5064387;28;20111;-78
2023/01/29 11:06:03;;;;;;;12.18;6.43;;;1.70;82.30;;;;;;5049411;28;20036;-76
2023/01/29 11:08:42;;;;;;;10.90;8.98;;;1.80;82.30;;;;;;5036386;28;20051;-77
2023/01/29 11:11:12;;;;;;;13.35;7.82;;;1.80;82.00;;;;;;5072476;28;20070;-77
2023/01/29 11:14:05;;;;;;;9.00;5.85;;;1.90;82.30;;;;;;5063908;28;20035;-78
2023/01/29 11:16:38;;;;;;;6.05;4.45;;;2.00;81.80;;;;;;5070721;28;21016;-77
2023/01/29 11:19:04;;;;;;;11.63;9.57;;;2.00;82.00;;;;;;5056199;28;20039;-77
2023/01/29 11:21:29;;;;;;;11.65;7.43;;;2.10;81.80;;;;;;5048602;28;20032;-77
2023/01/29 11:24:10;;;;;;;7.55;4.25;;;2.10;81.70;;;;;;5053497;28;20028;-77
2023/01/29 11:26:38;;;;;;;10.90;9.65;;;2.20;81.50;;;;;;5050220;28;20438;-76
2023/01/29 11:29:03;;;;;;;5.78;4.03;;;2.20;81.50;;;;;;5070032;28;20060;-77
2023/01/29 11:31:35;;;;;;;7.15;4.63;;;2.30;81.30;;;;;;5048594;28;20043;-77
2023/01/29 11:34:22;;;;;;;10.18;7.78;;;2.30;81.10;;;;;;5036734;28;20399;-77
2023/01/29 11:37:01;;;;;;;8.07;5.72;;;2.30;80.70;;;;;;5078970;28;20055;-78
2023/01/29 11:39:30;;;;;;;6.43;3.80;;;2.40;81.10;;;;;;5067182;28;20036;-77
2023/01/29 11:41:59;;;;;;;5.30;4.03;;;2.40;81.10;;;;;;5070272;28;20682;-77
2023/01/29 11:44:40;;;;;;;6.03;4.10;;;2.50;80.90;;;;;;5066813;28;20044;-76
2023/01/29 11:47:15;;;;;;;8.43;4.93;;;2.50;80.80;;;;;;5065204;28;20024;-78
2023/01/29 11:49:46;;;;;;;7.15;4.75;;;2.60;80.80;;;;;;5084305;28;21930;-76
2023/01/29 11:52:12;;;;;;;6.03;3.88;;;2.70;80.90;;;;;;5064011;28;20032;-77
2023/01/29 11:54:43;;;;;;;6.53;3.92;;;2.70;80.60;;;;;;5073826;28;20653;-77
2023/01/29 11:57:36;;;;;;;6.18;3.95;;;2.70;80.40;;;;;;5062878;28;20119;-77
2023/01/29 12:00:25;;;;;;;5.80;4.15;;;2.80;79.80;;;;;;5072546;28;20494;-77
2023/01/29 12:02:55;;;;;;;5.65;4.18;;;2.80;79.90;;;;;;5061764;28;20039;-77
2023/01/29 12:05:22;;;;;;;5.82;3.90;;;2.90;80.20;;;;;;5064847;28;20035;-76
2023/01/29 12:07:49;;;;;;;7.32;4.10;;;2.90;80.20;;;;;;5066119;28;20036;-77
2023/01/29 12:10:31;;;;;;;4.93;3.83;;;3.00;80.40;;;;;;5066399;28;20044;-77
2023/01/29 12:13:09;;;;;;;6.38;3.85;;;3.10;80.20;;;;;;5065304;28;20028;-78
2023/01/29 12:15:35;;;;;;;5.05;3.90;;;3.20;80.00;;;;;;5080411;28;21160;-77
2023/01/29 12:18:07;;;;;;;8.25;4.70;;;3.20;80.10;;;;;;5088442;28;20953;-78
2023/01/29 12:20:38;;;;;;;7.57;4.20;;;3.30;80.10;;;;;;5066635;28;20039;-79
2023/01/29 12:23:13;;;;;;;7.57;4.53;;;3.40;80.00;;;;;;5064274;28;20040;-74
2023/01/29 12:26:04;;;;;;;215.35;99.75;;;3.40;79.80;;;;;;5055882;28;20099;-78
2023/01/29 12:28:35;;;;;;;30.95;22.30;;;3.50;79.50;;;;;;5062788;28;20055;-78
2023/01/29 12:31:25;;;;;;;17.48;10.95;;;3.60;79.60;;;;;;5100944;27;20696;-79
2023/01/29 12:34:04;;;;;;;15.63;10.02;;;3.70;79.60;;;;;;5092434;28;20114;-77
2023/01/29 12:36:52;;;;;;;26.40;18.90;;;3.90;79.80;;;;;;5083880;27;20140;-78
2023/01/29 12:39:18;;;;;;;13.65;9.18;;;4.00;79.20;;;;;;5082532;28;20077;-77
2023/01/29 12:41:52;;;;;;;14.35;9.02;;;4.10;79.50;;;;;;5074469;27;20219;-78
2023/01/29 12:44:19;;;;;;;11.85;6.97;;;4.30;79.50;;;;;;5087076;28;20520;-78
2023/01/29 12:46:49;;;;;;;9.50;6.53;;;4.50;79.60;;;;;;5073335;27;20073;-79
2023/01/29 12:49:17;;;;;;;10.23;6.75;;;4.60;79.30;;;;;;5073946;28;20044;-79
2023/01/29 12:52:08;;;;;;;8.10;5.65;;;4.70;79.00;;;;;;5068381;28;20051;-77
2023/01/29 12:54:35;;;;;;;6.93;5.25;;;4.80;78.60;;;;;;5093677;27;20643;-78
2023/01/29 12:57:02;;;;;;;7.90;5.35;;;4.80;78.50;;;;;;5087067;27;20051;-77
2023/01/29 12:59:38;;;;;;;10.55;5.60;;;4.90;78.40;;;;;;5088317;27;20036;-78
2023/01/29 13:02:31;;;;;;;6.78;5.00;;;5.00;77.90;;;;;;5087649;27;20069;-78
2023/01/29 13:05:00;;;;;;;12.15;5.82;;;5.00;76.90;;;;;;5083083;27;20035;-78
2023/01/29 13:07:29;;;;;;;13.40;6.40;;;4.90;77.40;;;;;;5084984;27;20589;-78
2023/01/29 13:09:59;;;;;;;9.98;5.90;;;4.90;77.30;;;;;;5070567;27;20096;-78
2023/01/29 13:12:24;;;;;;;15.30;6.82;;;4.90;77.20;;;;;;5066027;28;20914;-78
2023/01/29 13:14:55;;;;;;;8.20;5.30;;;4.90;77.10;;;;;;5085120;28;20052;-76
2023/01/29 13:17:31;;;;;;;6.70;4.55;;;4.90;77.10;;;;;;5068350;27;20498;-78
2023/01/29 13:19:58;;;;;;;8.30;4.85;;;4.80;76.80;;;;;;5069992;27;20042;-77
2023/01/29 13:22:28;;;;;;;7.10;4.55;;;4.80;76.90;;;;;;5071845;28;20023;-78
2023/01/29 13:24:54;;;;;;;8.07;5.53;;;4.80;76.80;;;;;;5051618;27;20028;-78
2023/01/29 13:27:25;;;;;;;8.40;5.50;;;4.90;77.20;;;;;;5069907;28;20569;-77
2023/01/29 13:29:51;;;;;;;7.78;5.18;;;5.00;77.20;;;;;;5075304;28;20041;-78
2023/01/29 13:32:26;;;;;;;7.18;4.95;;;5.20;77.20;;;;;;5055521;28;20047;-77
2023/01/29 13:34:54;;;;;;;6.78;4.65;;;5.30;76.90;;;;;;5063458;28;20043;-76
2023/01/29 13:37:27;;;;;;;8.38;5.72;;;5.40;77.00;;;;;;5081660;28;20043;-76